Time;durP1;ratioP1;P1;durP2;ratioP2;P2;SDS_P1;SDS_P2;PMS_P1;PMS_P2;Temp;Humidity;BMP_temperature;BMP_pressure;BME280_temperature;BME280_humidity;BME280_pressure;Samples;Min_cycle;Max_cycle;Signal;HPM_P1;HPM_P2
2021/05/30 00:01:13;;;;;;;2.53;2.20;;;9.00;99.90;;;;;;5070412;28;20437;-68
2021/05/30 00:03:40;;;;;;;2.63;2.43;;;9.00;99.90;;;;;;5070052;28;21012;-69
2021/05/30 00:06:07;;;;;;;2.70;2.50;;;9.00;99.90;;;;;;5070376;28;20452;-69
2021/05/30 00:08:34;;;;;;;3.83;2.57;;;9.00;99.90;;;;;;5070634;28;21262;-69
2021/05/30 00:11:01;;;;;;;2.30;2.10;;;9.00;99.90;;;;;;5071264;28;20429;-69
2021/05/30 00:13:28;;;;;;;3.90;2.73;;;9.00;99.90;;;;;;5070305;28;20438;-69
2021/05/30 00:15:54;;;;;;;2.17;1.90;;;9.00;99.90;;;;;;5070430;28;20441;-69
2021/05/30 00:18:22;;;;;;;6.30;2.60;;;8.90;99.90;;;;;;5070295;28;20438;-69
2021/05/30 00:20:49;;;;;;;2.23;2.03;;;8.90;99.90;;;;;;5070337;28;20429;-69
2021/05/30 00:23:15;;;;;;;3.90;2.00;;;8.90;99.90;;;;;;5070149;28;20422;-69
2021/05/30 00:25:42;;;;;;;2.47;2.27;;;8.80;99.90;;;;;;5070265;28;20798;-69
2021/05/30 00:28:09;;;;;;;3.53;2.57;;;8.70;99.90;;;;;;5070070;28;20475;-69
2021/05/30 00:30:36;;;;;;;2.30;2.10;;;8.60;99.90;;;;;;5069989;28;20934;-68
2021/05/30 00:33:04;;;;;;;4.40;2.40;;;8.60;99.90;;;;;;5070360;28;21060;-69
2021/05/30 00:35:32;;;;;;;3.60;1.90;;;8.50;99.90;;;;;;5069984;28;20432;-69
2021/05/30 00:37:58;;;;;;;2.97;2.40;;;8.50;99.90;;;;;;5070497;28;20453;-69
2021/05/30 00:40:25;;;;;;;3.60;3.00;;;8.40;99.90;;;;;;5071496;28;20438;-69
2021/05/30 00:42:52;;;;;;;2.20;2.00;;;8.40;99.90;;;;;;5073520;28;20471;-69
2021/05/30 00:45:19;;;;;;;3.03;2.37;;;8.40;99.90;;;;;;5073262;28;20440;-69
2021/05/30 00:47:46;;;;;;;3.07;2.47;;;8.30;99.90;;;;;;5073466;28;20552;-69
2021/05/30 00:50:14;;;;;;;2.57;2.33;;;8.30;99.90;;;;;;5073969;28;20471;-71
2021/05/30 00:52:42;;;;;;;2.90;1.70;;;8.20;99.90;;;;;;5073483;28;20448;-69
2021/05/30 00:55:11;;;;;;;2.37;2.17;;;8.20;99.90;;;;;;5073111;28;20445;-69
2021/05/30 00:57:38;;;;;;;2.30;2.10;;;8.10;99.90;;;;;;5073374;28;20461;-68
2021/05/30 01:00:07;;;;;;;2.00;1.80;;;8.10;99.90;;;;;;5073567;28;20426;-69
2021/05/30 01:02:34;;;;;;;3.67;2.10;;;8.00;99.90;;;;;;5073291;28;20422;-68
2021/05/30 01:05:00;;;;;;;1.80;1.70;;;8.00;99.90;;;;;;5073286;28;20442;-68
2021/05/30 01:07:27;;;;;;;2.80;2.30;;;7.90;99.90;;;;;;5073095;28;20469;-68
2021/05/30 01:09:55;;;;;;;2.20;1.73;;;7.80;99.90;;;;;;5073096;28;20521;-69
2021/05/30 01:12:22;;;;;;;2.70;2.50;;;7.80;99.90;;;;;;5073358;28;20444;-68
2021/05/30 01:14:50;;;;;;;2.80;2.50;;;7.80;99.90;;;;;;5073158;28;20919;-68
2021/05/30 01:17:18;;;;;;;3.87;2.20;;;7.80;99.90;;;;;;5073227;28;20947;-68
2021/05/30 01:19:46;;;;;;;3.33;2.43;;;7.90;99.90;;;;;;5073019;28;20445;-67
2021/05/30 01:22:15;;;;;;;3.43;2.53;;;7.90;99.90;;;;;;5072726;28;20798;-68
2021/05/30 01:24:42;;;;;;;2.60;2.27;;;7.90;99.90;;;;;;5072619;28;20503;-67
2021/05/30 01:27:09;;;;;;;2.60;2.27;;;7.90;99.90;;;;;;5072817;28;20478;-67
2021/05/30 01:29:36;;;;;;;3.00;2.30;;;7.90;99.90;;;;;;5072960;28;20426;-68
2021/05/30 01:32:03;;;;;;;2.70;2.10;;;7.90;99.90;;;;;;5073000;28;20441;-67
2021/05/30 01:34:29;;;;;;;2.93;2.63;;;7.90;99.90;;;;;;5072642;28;20860;-67
2021/05/30 01:36:56;;;;;;;3.70;2.63;;;7.90;99.90;;;;;;5072713;28;20453;-67
2021/05/30 01:39:26;;;;;;;3.87;2.23;;;7.80;99.90;;;;;;5072208;28;20430;-68
2021/05/30 01:41:54;;;;;;;2.50;2.00;;;7.80;99.90;;;;;;5072526;28;20441;-67
2021/05/30 01:44:20;;;;;;;3.33;1.87;;;7.80;99.90;;;;;;5072818;28;20995;-67
2021/05/30 01:46:47;;;;;;;2.73;2.40;;;7.80;99.90;;;;;;5072482;28;20947;-68
2021/05/30 01:49:14;;;;;;;2.27;1.93;;;7.80;99.90;;;;;;5072434;28;20445;-68
2021/05/30 01:51:40;;;;;;;2.30;2.13;;;7.70;99.90;;;;;;5072094;28;20496;-67
2021/05/30 01:54:09;;;;;;;2.33;1.90;;;7.70;99.90;;;;;;5071931;28;20508;-68
2021/05/30 01:59:22;;;;;;;2.57;1.90;;;7.60;99.90;;;;;;5072419;28;20441;-68
2021/05/30 02:01:50;;;;;;;3.63;2.57;;;7.60;99.90;;;;;;5072201;28;20469;-67
2021/05/30 02:04:17;;;;;;;2.37;2.20;;;7.60;99.90;;;;;;5072005;28;20437;-68
2021/05/30 02:06:44;;;;;;;2.33;2.10;;;7.60;99.90;;;;;;5071651;28;20474;-68
2021/05/30 02:09:11;;;;;;;3.53;2.60;;;7.60;99.90;;;;;;5071853;28;20478;-67
2021/05/30 02:11:38;;;;;;;2.90;2.57;;;7.50;99.90;;;;;;5072476;28;20869;-67
2021/05/30 02:14:06;;;;;;;4.67;2.40;;;7.60;99.90;;;;;;5071786;28;20438;-68
2021/05/30 02:16:35;;;;;;;3.30;2.63;;;7.50;99.90;;;;;;5071803;28;20807;-68
2021/05/30 02:19:01;;;;;;;5.97;2.63;;;7.50;99.90;;;;;;5071755;28;20436;-68
2021/05/30 02:21:39;;;;;;;3.90;2.30;;;7.50;99.90;;;;;;5072141;28;20438;-68
2021/05/30 02:24:07;;;;;;;3.50;2.10;;;7.50;99.90;;;;;;5071888;28;20795;-68
2021/05/30 02:26:34;;;;;;;3.27;2.70;;;7.50;99.90;;;;;;5071419;28;20962;-68
2021/05/30 02:29:01;;;;;;;2.90;2.70;;;7.50;99.90;;;;;;5071583;28;20516;-67
2021/05/30 02:31:28;;;;;;;2.67;2.40;;;7.50;99.90;;;;;;5071419;28;20524;-68
2021/05/30 02:33:55;;;;;;;3.87;2.53;;;7.60;99.90;;;;;;5071470;28;20919;-68
2021/05/30 02:36:22;;;;;;;5.00;3.03;;;7.60;99.90;;;;;;5071581;28;21036;-67
2021/05/30 02:38:49;;;;;;;3.50;2.93;;;7.60;99.90;;;;;;5071284;28;20438;-67
2021/05/30 02:41:19;;;;;;;7.07;2.90;;;7.70;99.90;;;;;;5071214;28;20452;-68
2021/05/30 02:43:47;;;;;;;2.87;2.60;;;7.60;99.90;;;;;;5071313;28;20509;-67
2021/05/30 02:46:14;;;;;;;4.47;3.33;;;7.60;99.90;;;;;;5071065;28;20799;-67
2021/05/30 02:48:41;;;;;;;3.27;2.90;;;7.60;99.90;;;;;;5071216;28;20480;-67
2021/05/30 02:51:11;;;;;;;5.60;2.80;;;7.50;99.90;;;;;;5071157;28;20426;-67
2021/05/30 02:53:38;;;;;;;3.37;2.60;;;7.60;99.90;;;;;;5071133;28;20526;-67
2021/05/30 02:56:05;;;;;;;2.23;2.03;;;7.60;99.90;;;;;;5071320;28;20806;-68
2021/05/30 02:58:31;;;;;;;3.07;2.73;;;7.60;99.90;;;;;;5071033;28;20430;-67
2021/05/30 03:00:59;;;;;;;3.50;3.20;;;7.60;99.90;;;;;;5070929;28;20445;-68
2021/05/30 03:03:25;;;;;;;3.20;2.70;;;7.60;99.90;;;;;;5069480;28;20495;-67
2021/05/30 03:05:52;;;;;;;3.50;3.20;;;7.60;99.90;;;;;;5070893;28;20499;-68
2021/05/30 03:08:20;;;;;;;3.87;2.87;;;7.70;99.90;;;;;;5069918;28;20481;-67
2021/05/30 03:10:47;;;;;;;3.20;2.60;;;7.70;99.90;;;;;;5071017;28;20454;-67
2021/05/30 03:13:13;;;;;;;4.87;3.67;;;7.70;99.90;;;;;;5070714;28;20438;-67
2021/05/30 03:15:40;;;;;;;2.93;2.60;;;7.70;99.90;;;;;;5070133;28;20462;-67
2021/05/30 03:18:07;;;;;;;4.37;3.53;;;7.70;99.90;;;;;;5070883;28;20957;-68
2021/05/30 03:20:34;;;;;;;4.47;3.50;;;7.70;99.90;;;;;;5070978;28;20453;-67
2021/05/30 03:23:01;;;;;;;4.90;2.90;;;7.70;99.90;;;;;;5070653;28;20426;-67
2021/05/30 03:25:28;;;;;;;3.30;3.00;;;7.70;99.90;;;;;;5070650;28;20447;-68
2021/05/30 03:27:55;;;;;;;2.80;2.30;;;7.70;99.90;;;;;;5070465;28;20818;-67
2021/05/30 03:30:22;;;;;;;4.60;3.50;;;7.70;99.90;;;;;;5070527;28;20438;-67
2021/05/30 03:32:49;;;;;;;3.37;2.97;;;7.70;99.90;;;;;;5070591;28;20440;-67
2021/05/30 03:35:16;;;;;;;4.03;2.70;;;7.70;99.90;;;;;;5070745;28;20438;-67
2021/05/30 03:37:42;;;;;;;2.63;2.27;;;7.60;99.90;;;;;;5070578;28;20458;-68
2021/05/30 03:40:23;;;;;;;2.97;2.67;;;7.60;99.90;;;;;;5070490;28;20464;-67
2021/05/30 03:42:53;;;;;;;4.60;2.80;;;7.60;99.90;;;;;;5070550;28;20441;-68
2021/05/30 03:45:20;;;;;;;3.63;2.90;;;7.60;99.90;;;;;;5070187;28;20517;-68
2021/05/30 03:47:47;;;;;;;4.17;2.40;;;7.60;99.90;;;;;;5070473;28;20519;-68
2021/05/30 03:50:14;;;;;;;4.70;3.10;;;7.50;99.90;;;;;;5070565;28;20443;-67
2021/05/30 03:52:40;;;;;;;2.70;2.50;;;7.60;99.90;;;;;;5070441;28;20918;-67
2021/05/30 03:55:08;;;;;;;4.93;2.80;;;7.60;99.90;;;;;;5070445;28;20433;-68
2021/05/30 03:57:36;;;;;;;4.00;3.10;;;7.60;99.90;;;;;;5070646;28;20449;-67
2021/05/30 04:00:06;;;;;;;3.97;2.60;;;7.70;99.90;;;;;;5070082;28;20438;-67
2021/05/30 04:02:32;;;;;;;3.27;2.80;;;7.60;99.90;;;;;;5070390;28;20438;-67
2021/05/30 04:04:59;;;;;;;4.37;2.40;;;7.70;99.90;;;;;;5070210;28;20446;-67
2021/05/30 04:07:26;;;;;;;5.70;3.60;;;7.70;99.90;;;;;;5070629;28;20473;-68
2021/05/30 04:09:53;;;;;;;3.03;2.83;;;7.70;99.90;;;;;;5070624;28;20430;-68
2021/05/30 04:12:19;;;;;;;4.03;2.57;;;7.70;99.90;;;;;;5070365;28;20430;-68
2021/05/30 04:14:46;;;;;;;2.40;2.20;;;7.70;99.90;;;;;;5072710;28;20534;-67
2021/05/30 04:17:14;;;;;;;9.03;3.47;;;7.70;99.90;;;;;;5074153;28;20460;-67
2021/05/30 04:19:40;;;;;;;3.10;2.80;;;7.80;99.90;;;;;;5074503;28;20918;-67
2021/05/30 04:22:07;;;;;;;3.57;2.47;;;7.80;99.90;;;;;;5073983;28;20782;-67
2021/05/30 04:24:34;;;;;;;6.30;2.97;;;7.80;99.90;;;;;;5073852;28;20487;-68
2021/05/30 04:27:00;;;;;;;4.00;2.80;;;7.80;99.90;;;;;;5073958;28;20510;-67
2021/05/30 04:29:27;;;;;;;3.17;2.70;;;7.90;99.90;;;;;;5073640;28;20422;-67
2021/05/30 04:31:54;;;;;;;3.13;2.83;;;7.90;99.90;;;;;;5074504;28;20424;-68
2021/05/30 04:34:21;;;;;;;4.20;2.90;;;8.00;99.90;;;;;;5073611;28;20426;-68
2021/05/30 04:36:48;;;;;;;3.80;3.10;;;8.00;99.90;;;;;;5073749;28;20498;-68
2021/05/30 04:39:15;;;;;;;3.33;3.03;;;8.00;99.90;;;;;;5073649;28;20445;-68
2021/05/30 04:41:41;;;;;;;3.73;3.20;;;8.00;99.90;;;;;;5073649;28;20425;-68
2021/05/30 04:44:08;;;;;;;3.40;3.10;;;8.00;99.90;;;;;;5073517;28;20935;-68
2021/05/30 04:46:35;;;;;;;6.17;3.07;;;8.10;99.90;;;;;;5073379;28;20442;-68
2021/05/30 04:49:01;;;;;;;4.23;3.17;;;8.00;99.90;;;;;;5073341;28;20470;-67
2021/05/30 04:51:29;;;;;;;5.40;2.93;;;8.10;99.90;;;;;;5073762;28;20445;-67
2021/05/30 04:53:58;;;;;;;3.70;2.40;;;8.10;99.90;;;;;;5073354;28;20927;-67
2021/05/30 04:56:25;;;;;;;4.13;3.27;;;8.10;99.90;;;;;;5073833;28;20511;-68
2021/05/30 04:58:52;;;;;;;3.60;3.30;;;8.20;99.90;;;;;;5073683;28;20426;-68
2021/05/30 05:01:19;;;;;;;3.10;2.80;;;8.20;99.90;;;;;;5073285;28;20441;-67
2021/05/30 05:03:46;;;;;;;2.80;2.60;;;8.30;99.90;;;;;;5073149;28;20440;-67
2021/05/30 05:06:12;;;;;;;8.60;4.10;;;8.30;99.90;;;;;;5073259;28;20484;-68
2021/05/30 05:08:40;;;;;;;4.07;3.10;;;8.40;99.90;;;;;;5074054;28;20860;-68
2021/05/30 05:11:08;;;;;;;5.73;3.67;;;8.50;99.90;;;;;;5073638;28;20460;-67
2021/05/30 05:13:35;;;;;;;3.23;2.90;;;8.50;99.90;;;;;;5072986;28;20442;-67
2021/05/30 05:16:01;;;;;;;4.80;3.23;;;8.60;99.90;;;;;;5072821;28;20446;-67
2021/05/30 05:18:31;;;;;;;3.20;2.87;;;8.60;99.90;;;;;;5073169;28;20434;-68
2021/05/30 05:20:58;;;;;;;4.20;3.20;;;8.60;99.90;;;;;;5073083;28;20444;-67
2021/05/30 05:23:27;;;;;;;4.37;3.63;;;8.60;99.90;;;;;;5072911;28;20810;-68
2021/05/30 05:25:56;;;;;;;4.40;3.27;;;8.60;99.90;;;;;;5072123;28;20898;-67
2021/05/30 05:28:24;;;;;;;3.30;3.00;;;8.70;99.90;;;;;;5073360;28;20934;-68
2021/05/30 05:30:51;;;;;;;5.83;3.57;;;8.80;99.90;;;;;;5072666;28;20980;-67
2021/05/30 05:33:18;;;;;;;3.20;2.90;;;8.80;99.90;;;;;;5072776;28;20769;-67
2021/05/30 05:35:45;;;;;;;5.40;3.93;;;8.90;99.90;;;;;;5072661;28;20444;-67
2021/05/30 05:38:12;;;;;;;4.67;3.70;;;9.00;99.90;;;;;;5072837;28;20458;-67
2021/05/30 05:40:39;;;;;;;4.27;3.57;;;9.10;99.90;;;;;;5072744;28;20437;-67
2021/05/30 05:43:07;;;;;;;4.10;3.70;;;9.10;99.90;;;;;;5072230;28;20445;-67
2021/05/30 05:45:35;;;;;;;4.67;4.27;;;9.20;99.90;;;;;;5072467;28;20879;-68
2021/05/30 05:48:02;;;;;;;4.20;3.80;;;9.20;99.90;;;;;;5072546;28;20501;-68
2021/05/30 05:50:29;;;;;;;5.20;4.43;;;9.30;99.90;;;;;;5072307;28;20448;-68
2021/05/30 05:52:56;;;;;;;3.43;3.10;;;9.40;99.90;;;;;;5072270;28;20426;-67
2021/05/30 05:55:23;;;;;;;5.43;3.70;;;9.50;99.90;;;;;;5072252;28;20434;-67
2021/05/30 05:57:51;;;;;;;6.30;3.63;;;9.50;99.90;;;;;;5072578;28;20460;-67
2021/05/30 06:00:21;;;;;;;14.23;8.80;;;9.60;99.90;;;;;;5072154;28;20857;-68
2021/05/30 06:02:50;;;;;;;39.60;25.77;;;9.70;99.90;;;;;;5072371;28;20434;-67
2021/05/30 06:05:18;;;;;;;12.60;8.10;;;9.80;99.90;;;;;;5072247;28;20616;-69
2021/05/30 06:07:45;;;;;;;18.90;11.17;;;9.90;99.90;;;;;;5072294;28;20480;-67
2021/05/30 06:10:13;;;;;;;9.50;5.33;;;10.00;99.90;;;;;;5071997;28;20505;-68
2021/05/30 06:12:40;;;;;;;4.77;4.07;;;10.10;99.90;;;;;;5071958;28;20674;-68
2021/05/30 06:15:08;;;;;;;6.40;3.60;;;10.20;99.90;;;;;;5071648;28;20454;-68
2021/05/30 06:17:36;;;;;;;5.07;3.60;;;10.30;99.90;;;;;;5072147;28;20824;-68
2021/05/30 06:20:04;;;;;;;5.77;3.47;;;10.30;99.90;;;;;;5071957;28;20799;-68
2021/05/30 06:22:31;;;;;;;4.07;3.37;;;10.40;99.90;;;;;;5071733;28;20444;-67
2021/05/30 06:24:58;;;;;;;3.53;3.10;;;10.60;99.90;;;;;;5071544;28;20521;-68
2021/05/30 06:27:25;;;;;;;4.87;2.93;;;10.60;99.90;;;;;;5071520;28;20470;-68
2021/05/30 06:29:52;;;;;;;4.37;3.40;;;10.80;99.90;;;;;;5071385;28;20426;-68
2021/05/30 06:32:18;;;;;;;5.23;4.73;;;10.90;99.90;;;;;;5071717;28;20976;-68
2021/05/30 06:34:46;;;;;;;4.40;3.40;;;10.90;99.90;;;;;;5071318;28;20663;-67
2021/05/30 06:37:13;;;;;;;16.23;10.70;;;11.00;99.90;;;;;;5070745;28;20448;-67
2021/05/30 06:39:40;;;;;;;3.33;3.03;;;11.00;99.90;;;;;;5071427;28;20900;-68
2021/05/30 06:42:07;;;;;;;3.97;3.47;;;11.10;99.90;;;;;;5071398;28;20442;-67
2021/05/30 06:44:34;;;;;;;3.50;3.00;;;11.20;99.90;;;;;;5071375;28;20461;-67
2021/05/30 06:47:00;;;;;;;5.90;4.20;;;11.20;99.90;;;;;;5070815;28;20507;-68
2021/05/30 06:49:29;;;;;;;4.20;3.80;;;11.30;99.90;;;;;;5071719;28;20432;-68
2021/05/30 06:51:57;;;;;;;3.10;2.80;;;11.30;99.90;;;;;;5071131;28;20430;-68
2021/05/30 06:54:23;;;;;;;5.20;3.50;;;11.40;99.90;;;;;;5071112;28;20521;-68
2021/05/30 06:56:50;;;;;;;5.17;3.37;;;11.50;99.90;;;;;;5071420;28;20446;-68
2021/05/30 06:59:17;;;;;;;4.20;3.67;;;11.50;99.90;;;;;;5071139;28;20970;-68
2021/05/30 07:01:44;;;;;;;4.70;3.17;;;11.60;99.90;;;;;;5070850;28;20444;-68
2021/05/30 07:04:11;;;;;;;4.40;3.80;;;11.70;99.90;;;;;;5071331;28;20422;-68
2021/05/30 07:06:42;;;;;;;11.50;3.80;;;11.70;99.90;;;;;;5071004;28;20458;-68
2021/05/30 07:09:11;;;;;;;4.40;4.00;;;11.80;99.90;;;;;;5071258;28;21070;-68
2021/05/30 07:11:38;;;;;;;6.27;4.10;;;11.90;99.90;;;;;;5070917;28;20719;-67
2021/05/30 07:14:05;;;;;;;6.37;4.23;;;12.00;99.90;;;;;;5070904;28;20426;-68
2021/05/30 07:16:32;;;;;;;6.07;3.50;;;12.00;99.90;;;;;;5070602;28;20492;-68
2021/05/30 07:18:58;;;;;;;5.93;4.17;;;12.10;99.90;;;;;;5070739;28;20442;-67
2021/05/30 07:21:25;;;;;;;4.00;3.27;;;12.10;99.90;;;;;;5071275;28;20538;-67
2021/05/30 07:23:52;;;;;;;4.77;4.20;;;12.20;99.90;;;;;;5071217;28;20470;-68
2021/05/30 07:26:22;;;;;;;6.63;3.60;;;12.20;99.90;;;;;;5070793;28;20450;-68
2021/05/30 07:28:54;;;;;;;7.10;2.97;;;12.30;99.90;;;;;;5070756;28;20547;-68
2021/05/30 07:31:21;;;;;;;4.40;3.27;;;12.40;99.90;;;;;;5070484;28;21045;-67
2021/05/30 07:33:49;;;;;;;6.73;3.67;;;12.50;99.90;;;;;;5070626;28;20949;-67
2021/05/30 07:36:16;;;;;;;3.90;3.47;;;12.60;99.90;;;;;;5070597;28;20466;-68
2021/05/30 07:38:47;;;;;;;3.37;2.83;;;12.80;99.90;;;;;;5071206;28;20853;-67
2021/05/30 07:41:14;;;;;;;6.23;2.90;;;13.00;99.90;;;;;;5070451;28;20935;-67
2021/05/30 07:43:44;;;;;;;3.90;2.97;;;13.10;99.90;;;;;;5070708;28;20426;-68
2021/05/30 07:46:11;;;;;;;4.10;3.40;;;13.20;99.90;;;;;;5070425;28;20857;-68
2021/05/30 07:48:39;;;;;;;3.87;2.90;;;13.30;99.90;;;;;;5071265;28;20481;-68
2021/05/30 07:51:09;;;;;;;4.00;3.27;;;13.30;99.90;;;;;;5074459;28;20463;-67
2021/05/30 07:53:36;;;;;;;4.87;2.90;;;13.30;99.90;;;;;;5074799;28;20426;-68
2021/05/30 07:56:04;;;;;;;3.67;2.90;;;13.40;99.90;;;;;;5074684;28;20431;-68
2021/05/30 07:58:32;;;;;;;3.23;2.77;;;13.50;99.90;;;;;;5075014;28;20734;-68
2021/05/30 08:01:00;;;;;;;3.90;2.53;;;13.60;99.90;;;;;;5074296;28;20921;-68
2021/05/30 08:03:26;;;;;;;4.73;2.80;;;13.70;99.90;;;;;;5074653;28;20442;-68
2021/05/30 08:05:55;;;;;;;4.07;2.67;;;13.60;99.90;;;;;;5074272;28;20838;-67
2021/05/30 08:08:22;;;;;;;3.50;3.07;;;13.70;99.90;;;;;;5074260;28;20490;-66
2021/05/30 08:10:49;;;;;;;3.20;2.40;;;13.80;99.90;;;;;;5074244;28;20435;-67
2021/05/30 08:13:16;;;;;;;2.93;2.50;;;13.90;99.90;;;;;;5074056;28;20772;-66
2021/05/30 08:15:43;;;;;;;3.97;3.10;;;14.00;99.90;;;;;;5074103;28;20428;-67
2021/05/30 08:18:11;;;;;;;3.10;2.80;;;14.00;99.90;;;;;;5074135;28;20462;-66
2021/05/30 08:20:37;;;;;;;4.20;3.13;;;14.00;99.90;;;;;;5074099;28;20446;-67
2021/05/30 08:23:05;;;;;;;3.80;2.90;;;14.10;99.90;;;;;;5073956;28;20432;-67
2021/05/30 08:25:32;;;;;;;10.30;2.70;;;14.10;99.90;;;;;;5074026;28;20441;-66
2021/05/30 08:27:58;;;;;;;4.93;3.20;;;14.00;99.90;;;;;;5073845;28;20469;-66
2021/05/30 08:30:25;;;;;;;4.23;2.67;;;14.10;99.90;;;;;;5073633;28;20459;-66
2021/05/30 08:32:52;;;;;;;3.43;3.13;;;14.10;99.90;;;;;;5073839;28;20445;-66
2021/05/30 08:35:20;;;;;;;4.30;3.00;;;14.20;99.90;;;;;;5073789;28;20446;-66
2021/05/30 08:37:46;;;;;;;2.40;2.20;;;14.30;99.90;;;;;;5073661;28;20463;-66
2021/05/30 08:40:17;;;;;;;3.40;2.33;;;14.30;99.90;;;;;;5073698;28;20440;-66
2021/05/30 08:42:45;;;;;;;4.17;2.67;;;14.40;99.90;;;;;;5073837;28;20432;-66
2021/05/30 08:45:13;;;;;;;2.70;2.20;;;14.40;99.90;;;;;;5073287;28;20501;-66
2021/05/30 08:47:43;;;;;;;4.07;2.83;;;14.40;99.90;;;;;;5073350;28;20475;-66
2021/05/30 08:50:11;;;;;;;3.07;2.40;;;14.50;99.90;;;;;;5072678;28;20424;-66
2021/05/30 08:52:38;;;;;;;3.97;2.73;;;14.60;99.90;;;;;;5073409;28;20453;-66
2021/05/30 08:55:06;;;;;;;2.40;2.20;;;14.70;99.90;;;;;;5073476;28;20421;-66
2021/05/30 08:57:33;;;;;;;4.90;2.00;;;14.90;99.90;;;;;;5073443;28;20538;-66
2021/05/30 09:00:00;;;;;;;5.63;2.63;;;15.00;99.90;;;;;;5072454;28;20436;-66
2021/05/30 09:02:27;;;;;;;3.83;2.23;;;15.20;99.90;;;;;;5072745;28;20443;-67
2021/05/30 09:04:55;;;;;;;3.33;2.50;;;15.20;99.90;;;;;;5073225;28;20448;-66
2021/05/30 09:07:40;;;;;;;3.90;2.60;;;15.20;99.90;;;;;;5072971;28;20483;-66
2021/05/30 09:10:09;;;;;;;2.20;2.00;;;15.30;99.90;;;;;;5073426;28;20448;-66
2021/05/30 09:12:37;;;;;;;2.80;2.20;;;15.40;99.90;;;;;;5073528;28;20441;-66
2021/05/30 09:15:10;;;;;;;2.73;2.50;;;15.50;99.90;;;;;;5072906;28;20438;-66
2021/05/30 09:17:36;;;;;;;5.53;1.90;;;15.30;99.90;;;;;;5073112;28;20450;-66
2021/05/30 09:20:05;;;;;;;3.53;2.33;;;15.00;99.90;;;;;;5072814;28;20444;-66
2021/05/30 09:22:37;;;;;;;3.77;2.23;;;14.70;99.90;;;;;;5072963;28;20443;-66
2021/05/30 09:25:16;;;;;;;1.90;1.67;;;14.60;99.90;;;;;;5072903;28;20552;-66
2021/05/30 09:27:57;;;;;;;1.93;1.83;;;14.90;99.90;;;;;;5073082;28;20993;-67
2021/05/30 09:30:29;;;;;;;3.43;1.60;;;15.00;99.90;;;;;;5072844;28;20432;-66
2021/05/30 09:32:58;;;;;;;2.13;1.47;;;15.00;99.90;;;;;;5072767;28;20440;-66
2021/05/30 09:35:26;;;;;;;1.60;1.50;;;15.30;99.90;;;;;;5072855;28;20464;-66
2021/05/30 09:37:58;;;;;;;1.63;1.40;;;15.50;99.90;;;;;;5072827;28;20452;-66
2021/05/30 09:40:36;;;;;;;2.53;1.93;;;15.60;99.90;;;;;;5072554;28;20444;-66
2021/05/30 09:43:08;;;;;;;2.30;1.57;;;15.60;99.90;;;;;;5072545;28;20448;-66
2021/05/30 09:45:35;;;;;;;1.83;1.73;;;15.60;99.90;;;;;;5072372;28;20436;-66
2021/05/30 09:48:04;;;;;;;1.90;1.33;;;15.50;99.90;;;;;;5072435;28;20514;-66
2021/05/30 09:50:33;;;;;;;1.47;1.30;;;15.60;99.90;;;;;;5072363;28;20536;-66
2021/05/30 09:53:02;;;;;;;1.30;1.20;;;15.70;99.90;;;;;;5072334;28;20460;-66
2021/05/30 09:55:32;;;;;;;4.23;1.17;;;15.90;99.90;;;;;;5072483;28;20479;-67
2021/05/30 09:58:13;;;;;;;2.60;2.03;;;16.10;99.00;;;;;;5072210;28;20950;-66
2021/05/30 10:00:41;;;;;;;2.00;1.10;;;16.10;99.00;;;;;;5072665;28;20441;-66
2021/05/30 10:03:08;;;;;;;2.00;1.60;;;16.10;98.80;;;;;;5072236;28;20513;-67
2021/05/30 10:05:36;;;;;;;1.77;1.20;;;16.30;99.90;;;;;;5071872;28;20447;-67
2021/05/30 10:08:04;;;;;;;1.57;1.33;;;16.50;99.60;;;;;;5072063;28;20559;-67
2021/05/30 10:10:31;;;;;;;2.47;1.50;;;16.60;98.00;;;;;;5072116;28;20422;-67
2021/05/30 10:13:00;;;;;;;3.20;1.60;;;16.70;97.50;;;;;;5071810;28;20428;-67
2021/05/30 10:15:28;;;;;;;1.37;1.27;;;16.60;97.60;;;;;;5072272;28;20432;-68
2021/05/30 10:17:58;;;;;;;2.00;1.80;;;16.60;97.00;;;;;;5072038;28;20474;-67
2021/05/30 10:20:26;;;;;;;1.97;1.53;;;16.60;96.60;;;;;;5071751;28;20511;-67
2021/05/30 10:22:55;;;;;;;1.40;1.20;;;16.70;97.40;;;;;;5071933;28;20432;-67
2021/05/30 10:25:30;;;;;;;2.13;1.40;;;16.80;94.80;;;;;;5071699;28;20433;-67
2021/05/30 10:28:15;;;;;;;3.77;1.20;;;16.80;95.90;;;;;;5071981;28;20490;-67
2021/05/30 10:30:44;;;;;;;5.17;1.40;;;16.90;95.70;;;;;;5072137;28;20398;-67
2021/05/30 10:33:17;;;;;;;3.00;1.90;;;17.00;96.90;;;;;;5071825;28;20429;-67
2021/05/30 10:35:46;;;;;;;5.53;1.90;;;17.00;94.20;;;;;;5071816;28;20410;-67
2021/05/30 10:38:13;;;;;;;3.20;1.93;;;17.10;94.90;;;;;;5071836;28;20484;-67
2021/05/30 10:40:42;;;;;;;1.90;1.37;;;17.20;95.00;;;;;;5071540;28;20467;-67
2021/05/30 10:43:20;;;;;;;2.13;1.50;;;17.30;96.10;;;;;;5071220;28;20426;-67
2021/05/30 10:46:02;;;;;;;2.80;1.80;;;17.40;92.70;;;;;;5071117;28;20525;-67
2021/05/30 10:48:29;;;;;;;4.00;1.60;;;17.20;92.50;;;;;;5071361;28;20477;-67
2021/05/30 10:54:10;;;;;;;1.53;1.27;;;17.30;92.40;;;;;;5046255;28;20425;-67
2021/05/30 10:56:39;;;;;;;1.77;1.63;;;17.30;91.80;;;;;;5071067;28;20461;-67
2021/05/30 10:59:23;;;;;;;2.27;1.47;;;17.40;91.60;;;;;;5071745;28;20776;-67
2021/05/30 11:01:51;;;;;;;1.63;1.47;;;17.50;93.60;;;;;;5070720;28;20471;-66
2021/05/30 11:04:37;;;;;;;2.13;1.30;;;17.60;92.00;;;;;;5071605;28;20433;-67
2021/05/30 11:07:09;;;;;;;3.13;1.97;;;17.60;91.80;;;;;;5070841;28;20462;-67
2021/05/30 11:10:02;;;;;;;2.50;1.80;;;17.80;92.00;;;;;;5070938;28;20481;-67
2021/05/30 11:12:31;;;;;;;2.70;1.40;;;17.80;92.30;;;;;;5070878;28;20430;-67
2021/05/30 11:15:24;;;;;;;2.90;1.60;;;17.90;92.70;;;;;;5070682;28;20516;-67
2021/05/30 11:17:53;;;;;;;3.67;2.00;;;18.20;92.60;;;;;;5070640;28;20462;-67
2021/05/30 11:20:22;;;;;;;1.83;1.73;;;18.40;92.10;;;;;;5070819;28;20457;-67
2021/05/30 11:22:50;;;;;;;2.60;1.47;;;18.40;91.40;;;;;;5070674;28;20418;-67
2021/05/30 11:25:20;;;;;;;2.10;1.90;;;18.40;93.10;;;;;;5070616;28;20525;-67
2021/05/30 11:27:52;;;;;;;2.10;1.73;;;18.60;92.20;;;;;;5071191;28;20845;-67
2021/05/30 11:30:51;;;;;;;2.10;1.90;;;18.60;91.50;;;;;;5070648;28;20433;-68
2021/05/30 11:33:42;;;;;;;3.07;2.10;;;18.40;92.00;;;;;;4988808;28;20461;-67
2021/05/30 11:36:16;;;;;;;1.83;1.60;;;18.60;91.90;;;;;;5066466;28;20442;-67
2021/05/30 11:38:51;;;;;;;2.47;2.03;;;18.70;92.30;;;;;;5070865;28;20444;-67
2021/05/30 11:41:24;;;;;;;3.73;1.50;;;18.80;91.60;;;;;;5070525;28;20528;-67
2021/05/30 11:44:08;;;;;;;2.40;1.70;;;18.90;92.00;;;;;;5070348;28;20437;-66
2021/05/30 11:46:38;;;;;;;4.40;1.93;;;18.90;91.20;;;;;;5070373;28;20450;-67
2021/05/30 11:49:11;;;;;;;4.10;2.07;;;19.00;90.90;;;;;;5070450;28;20474;-67
2021/05/30 11:51:53;;;;;;;2.13;1.90;;;19.00;91.30;;;;;;5070439;28;20466;-66
2021/05/30 11:54:22;;;;;;;2.00;1.83;;;19.10;89.70;;;;;;5070702;28;20890;-66
2021/05/30 11:56:50;;;;;;;2.87;1.83;;;19.20;88.70;;;;;;5070545;28;20471;-67
2021/05/30 11:59:27;;;;;;;4.03;1.67;;;19.40;90.20;;;;;;5070340;28;20437;-66
2021/05/30 12:01:54;;;;;;;5.07;1.90;;;19.40;88.70;;;;;;5070001;28;20501;-67
2021/05/30 12:04:34;;;;;;;1.60;1.50;;;19.60;90.00;;;;;;5070201;28;20422;-66
2021/05/30 12:07:02;;;;;;;3.83;2.33;;;19.70;90.20;;;;;;5070098;28;20853;-67
2021/05/30 12:09:44;;;;;;;2.13;1.70;;;19.50;88.40;;;;;;5070675;28;21025;-67
2021/05/30 12:12:29;;;;;;;2.80;2.60;;;19.50;87.50;;;;;;5070480;28;20792;-67
2021/05/30 12:15:04;;;;;;;2.53;1.60;;;19.60;86.80;;;;;;5069972;28;20434;-66
2021/05/30 12:17:31;;;;;;;2.37;1.70;;;19.60;87.20;;;;;;5070396;28;20461;-68
2021/05/30 12:19:58;;;;;;;2.23;1.90;;;19.80;86.20;;;;;;5070419;28;20428;-66
2021/05/30 12:22:27;;;;;;;2.83;1.90;;;19.90;87.10;;;;;;5070165;28;20432;-67
2021/05/30 12:24:55;;;;;;;1.60;1.50;;;20.00;87.30;;;;;;5070148;28;20433;-67
2021/05/30 12:27:23;;;;;;;3.10;1.80;;;20.00;86.20;;;;;;5069941;28;20438;-67
2021/05/30 12:29:52;;;;;;;3.63;2.20;;;20.10;86.50;;;;;;5070166;28;20477;-66
2021/05/30 12:32:21;;;;;;;2.07;1.70;;;20.20;82.90;;;;;;5070159;28;20934;-66
2021/05/30 12:34:49;;;;;;;2.30;2.10;;;20.30;85.80;;;;;;5070849;28;20855;-66
2021/05/30 12:37:17;;;;;;;2.83;2.50;;;20.70;85.70;;;;;;5073654;28;20457;-67
2021/05/30 12:39:44;;;;;;;2.47;2.27;;;20.70;85.90;;;;;;5073913;28;20437;-67
2021/05/30 12:42:15;;;;;;;2.50;2.20;;;20.30;83.70;;;;;;5073822;28;20425;-66
2021/05/30 12:44:46;;;;;;;2.73;1.83;;;19.90;85.30;;;;;;5073425;28;20442;-67
2021/05/30 12:47:15;;;;;;;5.90;2.20;;;19.60;83.10;;;;;;5073276;28;20454;-66
2021/05/30 12:49:52;;;;;;;3.70;2.27;;;19.60;86.00;;;;;;5073585;28;20481;-67
2021/05/30 12:52:20;;;;;;;3.50;1.87;;;19.90;84.60;;;;;;5073262;28;20575;-67
2021/05/30 12:54:58;;;;;;;3.03;1.63;;;20.20;85.30;;;;;;5073387;28;20441;-67
2021/05/30 12:57:34;;;;;;;3.50;2.43;;;20.30;84.60;;;;;;5073586;28;20449;-67
2021/05/30 13:00:00;;;;;;;3.40;2.40;;;19.70;83.80;;;;;;5073381;28;20482;-67
2021/05/30 13:02:27;;;;;;;2.83;2.00;;;19.50;83.90;;;;;;5073176;28;20930;-67
2021/05/30 13:04:55;;;;;;;2.80;1.90;;;19.80;84.40;;;;;;5073013;28;20993;-67